createdAt,value
2019-05-22T00:00:12.635Z,30.20
2019-05-22T00:02:44.726Z,29.97
2019-05-22T00:05:16.059Z,28.60
2019-05-22T00:07:45.408Z,30.97
2019-05-22T00:10:16.493Z,29.50
2019-05-22T00:12:47.286Z,30.30
2019-05-22T00:15:16.505Z,31.47
2019-05-22T00:17:45.502Z,30.13
2019-05-22T00:20:16.487Z,30.27
2019-05-22T00:22:48.622Z,31.20
2019-05-22T00:25:21.019Z,30.80
2019-05-22T00:27:52.099Z,30.00
2019-05-22T00:30:20.578Z,30.20
2019-05-22T00:32:48.986Z,31.60
2019-05-22T00:35:21.116Z,30.80
2019-05-22T00:37:50.555Z,31.63
2019-05-22T00:40:20.500Z,30.07
2019-05-22T00:43:03.388Z,30.40
2019-05-22T00:45:22.436Z,31.47
2019-05-22T00:47:54.510Z,29.23
2019-05-22T00:50:28.690Z,30.33
2019-05-22T00:53:12.130Z,31.80
2019-05-22T00:55:48.124Z,30.30
2019-05-22T00:58:35.586Z,28.73
2019-05-22T01:01:09.601Z,30.73
2019-05-22T01:03:39.843Z,29.33
2019-05-22T01:06:11.069Z,30.80
2019-05-22T01:08:42.159Z,30.67
2019-05-22T01:11:13.889Z,28.77
2019-05-22T01:13:43.139Z,31.57
2019-05-22T01:16:14.374Z,30.47
2019-05-22T01:18:43.491Z,30.67
2019-05-22T01:21:14.818Z,29.97
2019-05-22T01:23:45.345Z,30.70
2019-05-22T01:26:16.883Z,31.23
2019-05-22T01:28:46.678Z,30.57
2019-05-22T01:31:29.430Z,31.20
2019-05-22T01:34:02.674Z,31.57
2019-05-22T01:36:33.106Z,32.33
2019-05-22T01:39:06.242Z,31.60
2019-05-22T01:41:37.454Z,32.10
2019-05-22T01:44:06.896Z,31.43
2019-05-22T01:46:39.122Z,32.67
2019-05-22T01:49:12.291Z,33.10
2019-05-22T01:51:42.439Z,31.13
2019-05-22T01:54:11.279Z,30.83
2019-05-22T01:56:41.845Z,32.53
2019-05-22T01:59:11.102Z,31.37
2019-05-22T02:01:40.174Z,33.23
2019-05-22T02:04:09.134Z,32.47
2019-05-22T02:06:37.620Z,31.87
2019-05-22T02:09:21.610Z,30.93
2019-05-22T02:11:57.126Z,30.87
2019-05-22T02:14:27.494Z,31.00
2019-05-22T02:16:57.818Z,29.90
2019-05-22T02:19:26.230Z,31.40
2019-05-22T02:21:55.590Z,31.20
2019-05-22T02:24:24.010Z,31.03
2019-05-22T02:26:52.971Z,30.40
2019-05-22T02:29:22.936Z,30.07
2019-05-22T02:31:55.475Z,30.63
2019-05-22T02:34:23.498Z,28.50
2019-05-22T02:36:53.664Z,29.47
2019-05-22T02:39:24.351Z,28.30
2019-05-22T02:41:59.555Z,28.07
2019-05-22T02:44:29.583Z,28.60
2019-05-22T02:47:16.527Z,27.83
2019-05-22T02:49:32.261Z,29.13
2019-05-22T02:52:01.808Z,28.23
2019-05-22T02:54:32.474Z,29.47
2019-05-22T02:57:02.298Z,30.30
2019-05-22T02:59:31.359Z,29.57
2019-05-22T03:02:03.255Z,30.80
2019-05-22T03:04:57.499Z,29.77
2019-05-22T03:07:26.556Z,30.70
2019-05-22T03:09:55.421Z,31.70
2019-05-22T03:12:24.318Z,28.60
2019-05-22T03:14:52.896Z,29.43
2019-05-22T03:17:28.093Z,28.60
2019-05-22T03:19:58.245Z,29.80
2019-05-22T03:22:29.136Z,30.17
2019-05-22T03:25:02.142Z,29.40
2019-05-22T03:27:50.668Z,27.90
2019-05-22T03:30:32.375Z,26.83
2019-05-22T03:33:04.954Z,27.10
2019-05-22T03:35:45.993Z,27.97
2019-05-22T03:38:15.896Z,26.90
2019-05-22T03:40:44.926Z,28.13
2019-05-22T03:43:27.985Z,27.17
2019-05-22T03:45:58.980Z,27.10
2019-05-22T03:48:30.566Z,27.00
2019-05-22T03:51:07.900Z,27.33
2019-05-22T03:53:36.847Z,26.87
2019-05-22T03:56:05.434Z,27.13
2019-05-22T03:58:34.482Z,25.80
2019-05-22T04:01:04.240Z,25.73
2019-05-22T04:03:34.918Z,26.53
2019-05-22T04:06:05.754Z,26.07
2019-05-22T04:08:34.474Z,26.37
2019-05-22T04:11:05.218Z,27.57
2019-05-22T04:13:34.368Z,26.10
2019-05-22T04:16:05.034Z,28.37
2019-05-22T04:18:35.794Z,27.60
2019-05-22T04:21:04.579Z,25.93
2019-05-22T04:23:33.835Z,26.50
2019-05-22T04:26:04.398Z,27.77
2019-05-22T04:28:33.394Z,28.03
2019-05-22T04:31:03.260Z,28.03
2019-05-22T04:33:31.726Z,26.90
2019-05-22T04:36:01.751Z,27.87
2019-05-22T04:38:31.311Z,27.17
2019-05-22T04:41:01.325Z,28.00
2019-05-22T04:43:32.472Z,25.77
2019-05-22T04:46:02.089Z,25.90
2019-05-22T04:48:32.690Z,25.70
2019-05-22T04:51:05.580Z,26.03
2019-05-22T04:53:34.155Z,26.13
2019-05-22T04:56:02.705Z,25.57
2019-05-22T04:58:31.881Z,24.53
2019-05-22T05:01:00.370Z,25.13
2019-05-22T05:03:29.972Z,23.20
2019-05-22T05:06:00.000Z,23.80
2019-05-22T05:08:28.864Z,25.07
2019-05-22T05:10:58.903Z,23.40
2019-05-22T05:13:27.308Z,23.33
2019-05-22T05:15:55.896Z,23.07
2019-05-22T05:18:24.586Z,22.43
2019-05-22T05:20:53.443Z,21.37
2019-05-22T05:23:22.039Z,21.83
2019-05-22T05:25:50.459Z,21.67
2019-05-22T05:28:19.217Z,22.13
2019-05-22T05:30:47.898Z,21.60
2019-05-22T05:33:16.648Z,21.47
2019-05-22T05:35:45.211Z,21.93
2019-05-22T05:38:15.736Z,19.97
2019-05-22T05:40:46.269Z,20.47
2019-05-22T05:43:16.631Z,20.57
2019-05-22T05:45:47.177Z,20.63
2019-05-22T05:48:21.066Z,20.47
2019-05-22T05:51:09.539Z,20.37
2019-05-22T05:54:02.604Z,20.10
2019-05-22T05:56:33.699Z,20.63
2019-05-22T05:59:04.682Z,20.97
2019-05-22T06:01:35.463Z,22.67
2019-05-22T06:04:04.916Z,22.37
2019-05-22T06:06:38.055Z,21.77
2019-05-22T06:09:09.896Z,21.93
2019-05-22T06:11:46.760Z,21.27
2019-05-22T06:14:28.170Z,21.87
2019-05-22T06:17:39.135Z,22.73
2019-05-22T06:20:14.589Z,21.33
2019-05-22T06:22:45.802Z,22.00
2019-05-22T06:25:15.413Z,20.87
2019-05-22T06:27:47.459Z,21.63
2019-05-22T06:30:21.384Z,19.93
2019-05-22T06:33:12.215Z,20.27
2019-05-22T06:35:42.246Z,20.37
2019-05-22T06:38:38.309Z,20.37
2019-05-22T06:41:07.066Z,20.77
2019-05-22T06:43:38.919Z,20.23
2019-05-22T06:46:07.978Z,19.93
2019-05-22T06:48:36.745Z,18.53
2019-05-22T06:51:18.647Z,18.60
2019-05-22T06:53:35.535Z,18.87
2019-05-22T06:56:03.966Z,18.43
2019-05-22T06:58:32.370Z,17.80
2019-05-22T07:01:00.791Z,18.10
2019-05-22T07:03:29.848Z,17.63
2019-05-22T07:05:59.009Z,16.67
2019-05-22T07:08:27.416Z,16.60
2019-05-22T07:10:56.172Z,16.53
2019-05-22T07:13:26.206Z,15.73
2019-05-22T07:15:55.338Z,15.77
2019-05-22T07:18:26.362Z,15.53
2019-05-22T07:20:54.858Z,15.10
2019-05-22T07:23:24.914Z,16.50
2019-05-22T07:25:54.944Z,15.87
2019-05-22T07:28:25.772Z,15.23
2019-05-22T07:30:54.246Z,16.23
2019-05-22T07:33:23.674Z,16.83
2019-05-22T07:36:08.607Z,16.37
2019-05-22T07:38:22.629Z,16.30
2019-05-22T07:40:51.868Z,16.77
2019-05-22T07:43:21.689Z,16.87
2019-05-22T07:45:51.519Z,15.73
2019-05-22T07:48:21.652Z,14.73
2019-05-22T07:50:51.881Z,15.70
2019-05-22T07:53:20.778Z,15.40
2019-05-22T07:55:50.932Z,15.30
2019-05-22T07:58:19.893Z,14.80
2019-05-22T08:00:54.052Z,14.80
2019-05-22T08:03:23.794Z,15.03
2019-05-22T08:05:54.858Z,14.83
2019-05-22T08:08:24.820Z,15.43
2019-05-22T08:10:54.411Z,15.73
2019-05-22T08:13:23.773Z,14.37
2019-05-22T08:15:52.355Z,14.00
2019-05-22T08:18:21.842Z,14.27
2019-05-22T08:20:50.902Z,14.23
2019-05-22T08:23:19.666Z,13.33
2019-05-22T08:25:48.325Z,12.90
2019-05-22T08:28:17.974Z,13.17
2019-05-22T08:30:48.090Z,13.53
2019-05-22T08:33:17.579Z,12.43
2019-05-22T08:35:46.430Z,13.17
2019-05-22T08:38:15.016Z,13.07
2019-05-22T08:40:45.131Z,13.33
2019-05-22T08:43:13.614Z,13.90
2019-05-22T08:45:42.737Z,13.20
2019-05-22T08:48:12.186Z,13.47
2019-05-22T08:50:42.022Z,13.63
2019-05-22T08:53:14.028Z,13.00
2019-05-22T08:55:43.311Z,13.20
2019-05-22T08:58:12.785Z,13.33
2019-05-22T09:00:41.196Z,12.67
2019-05-22T09:03:10.628Z,11.63
2019-05-22T09:05:39.044Z,11.83
2019-05-22T09:08:07.464Z,11.33
2019-05-22T09:10:36.219Z,11.80
2019-05-22T09:13:04.756Z,11.87
2019-05-22T09:15:34.868Z,10.77
2019-05-22T09:18:04.223Z,10.90
2019-05-22T09:20:48.180Z,10.10
2019-05-22T09:23:05.215Z,10.37
2019-05-22T09:25:34.067Z,9.70
2019-05-22T09:28:03.149Z,9.97
2019-05-22T09:30:31.801Z,9.57
2019-05-22T09:33:00.934Z,10.40
2019-05-22T09:35:29.995Z,10.03
2019-05-22T09:37:58.800Z,10.00
2019-05-22T09:40:27.384Z,9.10
2019-05-22T09:42:56.326Z,8.77
2019-05-22T09:45:24.909Z,9.20
2019-05-22T09:47:53.324Z,8.63
2019-05-22T09:50:23.424Z,8.47
2019-05-22T09:52:57.484Z,7.40
2019-05-22T09:55:22.893Z,7.77
2019-05-22T09:57:51.791Z,7.27
2019-05-22T10:00:20.510Z,7.73
2019-05-22T10:02:49.649Z,6.90
2019-05-22T10:05:19.207Z,7.43
2019-05-22T10:07:59.056Z,7.67
2019-05-22T10:10:18.580Z,7.30
2019-05-22T10:12:47.425Z,7.67
2019-05-22T10:15:16.527Z,7.97
2019-05-22T10:17:48.107Z,7.87
2019-05-22T10:20:18.660Z,8.10
2019-05-22T10:22:47.167Z,8.53
2019-05-22T10:25:17.092Z,8.37
2019-05-22T10:27:47.660Z,8.20
2019-05-22T10:30:19.237Z,7.77
2019-05-22T10:32:47.981Z,7.80
2019-05-22T10:35:17.141Z,6.80
2019-05-22T10:37:45.559Z,7.67
2019-05-22T10:40:15.878Z,7.50
2019-05-22T10:42:45.364Z,6.60
2019-05-22T10:45:14.335Z,6.80
2019-05-22T10:47:44.060Z,6.60
2019-05-22T10:50:13.809Z,6.70
2019-05-22T10:52:42.212Z,6.73
2019-05-22T10:55:12.932Z,6.20
2019-05-22T10:57:42.153Z,6.43
2019-05-22T11:00:12.852Z,5.90
2019-05-22T11:02:41.794Z,5.83
2019-05-22T11:05:10.948Z,5.80
2019-05-22T11:07:40.390Z,6.33
2019-05-22T11:10:10.815Z,6.20
2019-05-22T11:12:39.770Z,6.67
2019-05-22T11:15:10.085Z,6.00
2019-05-22T11:17:39.009Z,6.43
2019-05-22T11:20:09.832Z,5.50
2019-05-22T11:22:38.306Z,5.27
2019-05-22T11:25:12.891Z,5.13
2019-05-22T11:27:41.747Z,5.03
2019-05-22T11:30:12.190Z,5.10
2019-05-22T11:32:40.836Z,4.83
2019-05-22T11:35:12.245Z,3.90
2019-05-22T11:37:40.887Z,4.57
2019-05-22T11:40:11.618Z,4.27
2019-05-22T11:42:40.567Z,4.10
2019-05-22T11:45:11.986Z,4.40
2019-05-22T11:47:42.172Z,3.90
2019-05-22T11:50:16.088Z,4.47
2019-05-22T11:52:45.143Z,4.40
2019-05-22T11:55:14.252Z,4.03
2019-05-22T11:57:43.781Z,4.30
2019-05-22T12:00:13.875Z,3.50
2019-05-22T12:02:44.492Z,3.30
2019-05-22T12:05:14.119Z,3.93
2019-05-22T12:07:43.457Z,3.37
2019-05-22T12:10:14.476Z,3.40
2019-05-22T12:12:44.434Z,2.90
2019-05-22T12:15:14.933Z,5.00
2019-05-22T12:17:44.849Z,3.50
2019-05-22T12:20:14.483Z,3.83
2019-05-22T12:22:43.469Z,3.93
2019-05-22T12:25:13.436Z,3.80
2019-05-22T12:27:42.018Z,3.93
2019-05-22T12:30:14.380Z,4.00
2019-05-22T12:32:43.572Z,3.93
2019-05-22T12:35:15.258Z,3.80
2019-05-22T12:37:43.860Z,3.80
2019-05-22T12:40:15.643Z,3.67
2019-05-22T12:42:45.153Z,3.70
2019-05-22T12:45:15.582Z,3.50
2019-05-22T12:47:44.160Z,3.87
2019-05-22T12:50:15.706Z,3.90
2019-05-22T12:52:47.269Z,3.77
2019-05-22T12:55:16.921Z,3.63
2019-05-22T12:57:45.972Z,3.40
2019-05-22T13:00:15.705Z,3.10
2019-05-22T13:02:44.389Z,3.00
2019-05-22T13:05:14.451Z,3.08
2019-05-22T13:07:43.131Z,2.90
2019-05-22T13:10:12.288Z,3.37
2019-05-22T13:12:40.866Z,3.15
2019-05-22T13:15:10.972Z,2.95
2019-05-22T13:17:40.803Z,2.90
2019-05-22T13:20:12.486Z,2.83
2019-05-22T13:22:47.717Z,2.57
2019-05-22T13:25:18.724Z,3.00
2019-05-22T13:27:47.609Z,2.50
2019-05-22T13:30:17.158Z,2.70
2019-05-22T13:32:46.510Z,3.00
2019-05-22T13:35:18.399Z,3.10
2019-05-22T13:37:47.635Z,2.40
2019-05-22T13:40:27.195Z,3.60
2019-05-22T13:42:47.454Z,2.60
2019-05-22T13:45:28.756Z,2.70
2019-05-22T13:47:47.414Z,2.77
2019-05-22T13:50:17.362Z,2.80
2019-05-22T13:52:46.679Z,3.30
2019-05-22T13:55:15.891Z,2.93
2019-05-22T13:57:44.539Z,3.07
2019-05-22T14:00:15.423Z,2.80
2019-05-22T14:02:43.830Z,3.17
2019-05-22T14:05:14.037Z,2.77
2019-05-22T14:07:42.566Z,3.20
2019-05-22T14:10:11.313Z,3.40
2019-05-22T14:12:39.956Z,3.23
2019-05-22T14:15:09.029Z,3.20
2019-05-22T14:17:37.830Z,3.17
2019-05-22T14:20:08.576Z,3.83
2019-05-22T14:22:37.258Z,3.40
2019-05-22T14:25:09.135Z,3.80
2019-05-22T14:27:41.659Z,2.90
2019-05-22T14:30:09.149Z,3.40
2019-05-22T14:32:37.642Z,3.10
2019-05-22T14:35:06.647Z,3.10
2019-05-22T14:37:35.294Z,3.13
2019-05-22T14:40:06.083Z,2.90
2019-05-22T14:42:35.347Z,2.73
2019-05-22T14:45:05.198Z,3.27
2019-05-22T14:47:33.763Z,3.17
2019-05-22T14:50:03.221Z,2.80
2019-05-22T14:52:32.650Z,3.30
2019-05-22T14:55:01.494Z,3.10
2019-05-22T14:57:30.092Z,3.30
2019-05-22T14:59:58.825Z,4.07
2019-05-22T15:02:27.810Z,3.10
2019-05-22T15:04:57.371Z,3.57
2019-05-22T15:07:26.118Z,3.60
2019-05-22T15:09:55.085Z,3.60
2019-05-22T15:12:23.771Z,3.70
2019-05-22T15:14:52.188Z,3.83
2019-05-22T15:17:31.713Z,4.20
2019-05-22T15:19:51.192Z,4.03
2019-05-22T15:22:19.673Z,3.53
2019-05-22T15:24:48.083Z,3.60
2019-05-22T15:27:16.660Z,3.53
2019-05-22T15:29:45.070Z,3.40
2019-05-22T15:32:13.883Z,3.77
2019-05-22T15:34:42.981Z,4.10
2019-05-22T15:37:13.494Z,4.10
2019-05-22T15:39:42.950Z,3.80
2019-05-22T15:42:14.652Z,3.60
2019-05-22T15:44:44.827Z,4.13
2019-05-22T15:47:13.414Z,3.90
2019-05-22T15:49:44.238Z,3.70
2019-05-22T15:52:16.453Z,4.20
2019-05-22T15:54:45.875Z,4.13
2019-05-22T15:57:15.839Z,3.93
2019-05-22T15:59:45.016Z,4.23
2019-05-22T16:02:14.932Z,4.50
2019-05-22T16:04:43.507Z,4.40
2019-05-22T16:07:13.418Z,5.33
2019-05-22T16:09:43.201Z,4.80
2019-05-22T16:12:12.236Z,4.07
2019-05-22T16:14:41.313Z,5.10
2019-05-22T16:17:09.900Z,5.43
2019-05-22T16:19:40.139Z,4.50
2019-05-22T16:22:10.769Z,4.00
2019-05-22T16:24:40.383Z,3.53
2019-05-22T16:27:12.135Z,3.60
2019-05-22T16:29:41.286Z,3.43
2019-05-22T16:32:12.332Z,3.63
2019-05-22T16:34:41.452Z,3.57
2019-05-22T16:37:10.414Z,4.30
2019-05-22T16:39:40.068Z,3.47
2019-05-22T16:42:10.198Z,3.10
2019-05-22T16:44:39.727Z,3.20
2019-05-22T16:47:10.922Z,2.43
2019-05-22T16:49:39.819Z,2.50
2019-05-22T16:52:10.608Z,3.00
2019-05-22T16:54:40.733Z,2.50
2019-05-22T16:57:10.627Z,2.50
2019-05-22T16:59:40.777Z,2.47
2019-05-22T17:02:12.016Z,2.73
2019-05-22T17:04:41.393Z,2.70
2019-05-22T17:07:10.780Z,2.47
2019-05-22T17:09:40.791Z,2.13
2019-05-22T17:12:09.796Z,2.03
2019-05-22T17:14:38.603Z,2.40
2019-05-22T17:17:07.290Z,1.90
2019-05-22T17:19:36.085Z,2.33
2019-05-22T17:22:06.337Z,1.80
2019-05-22T17:24:34.899Z,1.83
2019-05-22T17:27:05.041Z,2.40
2019-05-22T17:29:34.198Z,2.87
2019-05-22T17:32:04.120Z,2.63
2019-05-22T17:34:33.737Z,5.80
2019-05-22T17:37:09.605Z,3.70
2019-05-22T17:39:41.487Z,1.93
2019-05-22T17:42:12.968Z,2.20
2019-05-22T17:44:45.405Z,2.43
2019-05-22T17:47:14.762Z,4.90
2019-05-22T17:49:43.792Z,2.50
2019-05-22T17:52:15.063Z,1.80
2019-05-22T17:54:44.307Z,1.83
2019-05-22T17:57:13.982Z,1.80
2019-05-22T17:59:42.704Z,2.00
2019-05-22T18:02:12.779Z,2.27
2019-05-22T18:04:41.530Z,2.10
2019-05-22T18:07:10.102Z,1.93
2019-05-22T18:09:38.681Z,2.00
2019-05-22T18:12:07.465Z,1.73
2019-05-22T18:14:36.829Z,2.00
2019-05-22T18:17:06.533Z,2.40
2019-05-22T18:19:35.757Z,2.10
2019-05-22T18:22:06.154Z,2.30
2019-05-22T18:24:34.911Z,2.40
2019-05-22T18:27:03.486Z,2.80
2019-05-22T18:29:32.218Z,3.07
2019-05-22T18:32:01.040Z,2.37
2019-05-22T18:34:29.479Z,2.80
2019-05-22T18:36:58.111Z,2.37
2019-05-22T18:39:27.460Z,3.13
2019-05-22T18:41:55.956Z,2.60
2019-05-22T18:44:24.374Z,2.60
2019-05-22T18:46:52.793Z,2.20
2019-05-22T18:49:21.265Z,2.77
2019-05-22T18:51:49.701Z,2.70
2019-05-22T18:54:19.115Z,2.63
2019-05-22T18:56:47.737Z,2.87
2019-05-22T18:59:16.159Z,2.60
2019-05-22T19:01:45.170Z,2.80
2019-05-22T19:04:13.818Z,3.20
2019-05-22T19:06:42.570Z,3.03
2019-05-22T19:09:11.300Z,2.50
2019-05-22T19:11:40.545Z,2.50
2019-05-22T19:14:09.131Z,2.70
2019-05-22T19:16:37.990Z,2.77
2019-05-22T19:19:06.489Z,3.47
2019-05-22T19:21:35.140Z,3.10
2019-05-22T19:24:04.000Z,3.00
2019-05-22T19:26:32.473Z,3.40
2019-05-22T19:29:00.956Z,2.97
2019-05-22T19:31:29.544Z,3.67
2019-05-22T19:33:57.956Z,3.57
2019-05-22T19:36:26.376Z,3.67
2019-05-22T19:38:55.061Z,3.43
2019-05-22T19:41:24.075Z,3.27
2019-05-22T19:43:52.511Z,4.10
2019-05-22T19:46:20.914Z,3.43
2019-05-22T19:48:49.554Z,3.63
2019-05-22T19:51:19.347Z,4.10
2019-05-22T19:53:48.695Z,4.10
2019-05-22T19:56:17.705Z,4.33
2019-05-22T19:58:46.295Z,4.77
2019-05-22T20:01:15.443Z,5.67
2019-05-22T20:03:43.842Z,4.97
2019-05-22T20:06:12.894Z,5.40
2019-05-22T20:08:41.674Z,6.03
2019-05-22T20:11:10.257Z,5.30
2019-05-22T20:13:39.518Z,5.20
2019-05-22T20:16:09.165Z,5.00
2019-05-22T20:18:38.026Z,6.07
2019-05-22T20:21:06.627Z,6.60
2019-05-22T20:23:36.946Z,5.30
2019-05-22T20:26:05.575Z,5.10
2019-05-22T20:28:34.150Z,4.73
2019-05-22T20:31:02.915Z,4.77
2019-05-22T20:33:31.788Z,4.57
2019-05-22T20:36:00.316Z,4.67
2019-05-22T20:38:29.086Z,4.80
2019-05-22T20:40:57.943Z,4.70
2019-05-22T20:43:27.487Z,4.70
2019-05-22T20:45:58.002Z,5.30
2019-05-22T20:48:28.888Z,4.87
2019-05-22T20:50:59.003Z,4.70
2019-05-22T20:53:30.242Z,4.87
2019-05-22T20:55:59.770Z,4.80
2019-05-22T20:58:28.534Z,4.57
2019-05-22T21:00:57.287Z,5.40
2019-05-22T21:03:25.869Z,4.97
2019-05-22T21:05:54.342Z,5.07
2019-05-22T21:08:24.358Z,5.17
2019-05-22T21:10:54.268Z,6.57
2019-05-22T21:13:23.902Z,7.93
2019-05-22T21:15:53.958Z,7.03
2019-05-22T21:18:24.278Z,6.03
2019-05-22T21:20:55.102Z,6.27
2019-05-22T21:23:24.418Z,6.60
2019-05-22T21:25:53.273Z,6.07
2019-05-22T21:28:22.618Z,6.43
2019-05-22T21:30:53.325Z,6.17
2019-05-22T21:33:23.466Z,6.60
2019-05-22T21:35:52.640Z,6.57
2019-05-22T21:38:22.693Z,7.10
2019-05-22T21:40:53.297Z,5.77
2019-05-22T21:43:21.710Z,6.93
2019-05-22T21:45:50.289Z,6.53
2019-05-22T21:48:19.239Z,6.50
2019-05-22T21:50:48.453Z,6.40
2019-05-22T21:53:18.103Z,6.60
2019-05-22T21:55:46.835Z,7.00
2019-05-22T21:58:16.060Z,6.80
2019-05-22T22:00:57.694Z,6.83
2019-05-22T22:03:32.823Z,6.27
2019-05-22T22:06:01.861Z,6.13
2019-05-22T22:08:30.745Z,6.80
2019-05-22T22:10:59.143Z,6.70
2019-05-22T22:13:29.677Z,5.97
2019-05-22T22:15:58.620Z,6.50
2019-05-22T22:18:27.276Z,6.97
2019-05-22T22:20:56.610Z,7.47
2019-05-22T22:23:25.695Z,7.13
2019-05-22T22:25:54.166Z,7.50
2019-05-22T22:28:24.777Z,7.63
2019-05-22T22:31:02.409Z,7.17
2019-05-22T22:33:32.719Z,6.53
2019-05-22T22:36:02.127Z,6.67
2019-05-22T22:38:32.846Z,6.50
2019-05-22T22:41:02.891Z,7.27
2019-05-22T22:43:33.235Z,6.50
2019-05-22T22:46:05.248Z,6.90
2019-05-22T22:48:38.931Z,6.60
2019-05-22T22:51:09.612Z,6.03
2019-05-22T22:53:38.747Z,6.60
2019-05-22T22:56:08.288Z,6.23
2019-05-22T22:58:37.325Z,6.40
2019-05-22T23:01:08.918Z,5.50
2019-05-22T23:03:38.465Z,5.50
2019-05-22T23:06:10.618Z,5.60
2019-05-22T23:08:40.673Z,5.50
2019-05-22T23:11:10.518Z,4.93
2019-05-22T23:13:40.784Z,4.80
2019-05-22T23:16:11.727Z,5.20
2019-05-22T23:18:46.847Z,4.93
2019-05-22T23:21:15.816Z,5.10
2019-05-22T23:23:43.917Z,5.00
2019-05-22T23:26:13.063Z,5.20
2019-05-22T23:28:42.982Z,5.73
2019-05-22T23:31:12.526Z,5.40
2019-05-22T23:33:42.930Z,5.60
2019-05-22T23:36:13.451Z,5.57
2019-05-22T23:38:42.019Z,5.77
2019-05-22T23:41:12.458Z,5.67
2019-05-22T23:43:44.249Z,5.93
2019-05-22T23:46:14.655Z,6.27
2019-05-22T23:48:43.802Z,6.60
2019-05-22T23:51:12.741Z,5.90
2019-05-22T23:53:43.422Z,6.37
2019-05-22T23:56:12.267Z,6.43
2019-05-22T23:58:52.273Z,7.90
